createdAt,value
2023-01-23T00:01:27.630Z,0.40
2023-01-23T00:03:56.005Z,0.40
2023-01-23T00:06:23.873Z,0.40
2023-01-23T00:08:51.364Z,0.40
2023-01-23T00:11:21.789Z,0.50
2023-01-23T00:13:48.867Z,0.50
2023-01-23T00:16:18.618Z,0.50
2023-01-23T00:18:46.072Z,0.40
2023-01-23T00:21:15.949Z,0.50
2023-01-23T00:23:45.123Z,0.50
2023-01-23T00:26:15.895Z,0.50
2023-01-23T00:28:44.055Z,0.50
2023-01-23T00:31:17.131Z,0.50
2023-01-23T00:33:45.179Z,0.50
2023-01-23T00:36:14.398Z,0.50
2023-01-23T00:38:42.233Z,0.50
2023-01-23T00:41:09.447Z,0.50
2023-01-23T00:43:36.556Z,0.50
2023-01-23T00:46:03.680Z,0.50
2023-01-23T00:48:31.191Z,0.50
2023-01-23T00:50:58.244Z,0.50
2023-01-23T00:53:25.521Z,0.50
2023-01-23T00:55:53.680Z,0.50
2023-01-23T00:58:20.771Z,0.50
2023-01-23T01:00:48.360Z,0.50
2023-01-23T01:03:15.488Z,0.50
2023-01-23T01:05:42.572Z,0.50
2023-01-23T01:08:10.285Z,0.50
2023-01-23T01:10:39.484Z,0.50
2023-01-23T01:13:06.562Z,0.50
2023-01-23T01:15:33.772Z,0.50
2023-01-23T01:18:00.999Z,0.50
2023-01-23T01:20:29.030Z,0.50
2023-01-23T01:22:57.996Z,0.50
2023-01-23T01:25:25.559Z,0.40
2023-01-23T01:27:53.079Z,0.40
2023-01-23T01:30:20.507Z,0.40
2023-01-23T01:32:48.492Z,0.40
2023-01-23T01:35:15.665Z,0.40
2023-01-23T01:37:42.772Z,0.40
2023-01-23T01:40:18.089Z,0.40
2023-01-23T01:42:52.547Z,0.40
2023-01-23T01:45:57.059Z,0.30
2023-01-23T01:48:29.050Z,0.30
2023-01-23T01:50:56.749Z,0.30
2023-01-23T01:53:27.450Z,0.30
2023-01-23T01:55:55.067Z,0.30
2023-01-23T01:58:22.929Z,0.30
2023-01-23T02:00:50.037Z,0.30
2023-01-23T02:03:19.633Z,0.30
2023-01-23T02:05:50.215Z,0.30
2023-01-23T02:08:30.653Z,0.20
2023-01-23T02:10:58.038Z,0.30
2023-01-23T02:13:30.542Z,0.30
2023-01-23T02:15:59.777Z,0.30
2023-01-23T02:18:29.252Z,0.30
2023-01-23T02:20:59.733Z,0.30
2023-01-23T02:23:55.772Z,0.30
2023-01-23T02:26:29.393Z,0.30
2023-01-23T02:28:57.501Z,0.30
2023-01-23T02:31:24.746Z,0.30
2023-01-23T02:33:54.305Z,0.30
2023-01-23T02:36:24.805Z,0.20
2023-01-23T02:38:55.101Z,0.20
2023-01-23T02:41:32.689Z,0.20
2023-01-23T02:44:03.613Z,0.10
2023-01-23T02:46:30.893Z,0.10
2023-01-23T02:48:58.005Z,0.10
2023-01-23T02:51:25.242Z,0.10
2023-01-23T02:53:52.467Z,0.10
2023-01-23T02:56:20.170Z,0.10
2023-01-23T02:59:05.955Z,0.10
2023-01-23T03:01:35.865Z,0.10
2023-01-23T03:04:06.533Z,0.10
2023-01-23T03:06:38.600Z,0.10
2023-01-23T03:09:10.864Z,0.10
2023-01-23T03:11:40.236Z,0.10
2023-01-23T03:14:11.052Z,0.10
2023-01-23T03:16:38.715Z,0.10
2023-01-23T03:19:09.181Z,0.00
2023-01-23T03:21:42.806Z,-0.10
2023-01-23T03:24:12.857Z,-0.10
2023-01-23T03:26:41.442Z,-0.10
2023-01-23T03:29:33.177Z,-0.10
2023-01-23T03:32:00.680Z,-0.10
2023-01-23T03:34:28.514Z,-0.10
2023-01-23T03:36:55.695Z,0.00
2023-01-23T03:39:45.723Z,0.00
2023-01-23T03:42:12.787Z,0.00
2023-01-23T03:44:39.957Z,0.00
2023-01-23T03:47:07.309Z,0.00
2023-01-23T03:49:34.564Z,0.00
2023-01-23T03:52:02.232Z,0.00
2023-01-23T03:54:29.510Z,0.00
2023-01-23T03:56:56.863Z,-0.10
2023-01-23T03:59:23.910Z,-0.10
2023-01-23T04:01:51.065Z,0.00
2023-01-23T04:04:18.200Z,0.00
2023-01-23T04:06:45.247Z,0.00
2023-01-23T04:09:13.206Z,0.00
2023-01-23T04:11:40.356Z,0.00
2023-01-23T04:14:07.462Z,0.00
2023-01-23T04:16:34.521Z,0.00
2023-01-23T04:19:01.796Z,0.00
2023-01-23T04:21:29.100Z,0.00
2023-01-23T04:23:56.154Z,0.00
2023-01-23T04:26:23.496Z,0.00
2023-01-23T04:28:50.692Z,0.00
2023-01-23T04:31:17.971Z,-0.10
2023-01-23T04:33:45.129Z,-0.10
2023-01-23T04:36:12.631Z,-0.10
2023-01-23T04:38:40.218Z,-0.10
2023-01-23T04:41:07.498Z,-0.20
2023-01-23T04:43:36.048Z,-0.20
2023-01-23T04:46:03.191Z,-0.20
2023-01-23T04:48:30.444Z,-0.30
2023-01-23T04:50:57.572Z,-0.30
2023-01-23T04:53:24.787Z,-0.30
2023-01-23T04:55:52.405Z,-0.30
2023-01-23T04:58:19.932Z,-0.40
2023-01-23T05:00:47.469Z,-0.40
2023-01-23T05:03:15.429Z,-0.40
2023-01-23T05:05:44.417Z,-0.40
2023-01-23T05:08:12.739Z,-0.40
2023-01-23T05:10:40.965Z,-0.40
2023-01-23T05:13:10.346Z,-0.50
2023-01-23T05:15:37.522Z,-0.50
2023-01-23T05:18:05.027Z,-0.50
2023-01-23T05:20:32.038Z,-0.50
2023-01-23T05:22:59.232Z,-0.50
2023-01-23T05:25:28.232Z,-0.50
2023-01-23T05:27:56.090Z,-0.40
2023-01-23T05:30:23.845Z,-0.40
2023-01-23T05:32:51.340Z,-0.40
2023-01-23T05:35:18.598Z,-0.40
2023-01-23T05:37:52.011Z,-0.30
2023-01-23T05:40:20.316Z,-0.30
2023-01-23T05:42:48.492Z,-0.30
2023-01-23T05:45:16.016Z,-0.30
2023-01-23T05:47:43.395Z,-0.30
2023-01-23T05:50:15.935Z,-0.30
2023-01-23T05:52:43.822Z,-0.30
2023-01-23T05:55:11.250Z,-0.30
2023-01-23T05:57:39.263Z,-0.20
2023-01-23T06:00:08.485Z,-0.20
2023-01-23T06:02:35.686Z,-0.20
2023-01-23T06:05:02.894Z,-0.10
2023-01-23T06:07:30.163Z,-0.10
2023-01-23T06:09:57.308Z,-0.10
2023-01-23T06:12:24.678Z,-0.10
2023-01-23T06:14:52.729Z,-0.10
2023-01-23T06:17:20.077Z,-0.10
2023-01-23T06:19:48.637Z,-0.10
2023-01-23T06:22:15.810Z,0.00
2023-01-23T06:24:42.932Z,-0.10
2023-01-23T06:27:10.057Z,-0.10
2023-01-23T06:29:37.911Z,0.00
2023-01-23T06:32:05.661Z,0.00
2023-01-23T06:34:32.838Z,0.00
2023-01-23T06:36:59.896Z,0.00
2023-01-23T06:39:27.226Z,0.10
2023-01-23T06:41:55.004Z,0.10
2023-01-23T06:44:22.238Z,0.10
2023-01-23T06:46:49.395Z,0.10
2023-01-23T06:49:16.592Z,0.10
2023-01-23T06:51:43.588Z,0.20
2023-01-23T06:54:10.699Z,0.20
2023-01-23T06:56:37.991Z,0.20
2023-01-23T06:59:05.050Z,0.20
2023-01-23T07:01:32.169Z,0.20
2023-01-23T07:03:59.245Z,0.20
2023-01-23T07:06:26.436Z,0.20
2023-01-23T07:08:53.601Z,0.20
2023-01-23T07:11:20.742Z,0.20
2023-01-23T07:13:47.948Z,0.20
2023-01-23T07:16:15.753Z,0.20
2023-01-23T07:18:42.811Z,0.20
2023-01-23T07:21:10.035Z,0.20
2023-01-23T07:23:37.051Z,0.20
2023-01-23T07:26:09.596Z,0.30
2023-01-23T07:28:38.952Z,0.20
2023-01-23T07:31:06.405Z,0.30
2023-01-23T07:33:33.799Z,0.30
2023-01-23T07:36:01.414Z,0.30
2023-01-23T07:38:28.591Z,0.30
2023-01-23T07:40:59.090Z,0.30
2023-01-23T07:43:27.266Z,0.30
2023-01-23T07:45:54.487Z,0.40
2023-01-23T07:48:21.494Z,0.40
2023-01-23T07:50:48.674Z,0.40
2023-01-23T07:53:15.828Z,0.40
2023-01-23T07:55:42.974Z,0.40
2023-01-23T07:58:10.014Z,0.40
2023-01-23T08:00:37.160Z,0.50
2023-01-23T08:03:04.341Z,0.50
2023-01-23T08:05:31.518Z,0.50
2023-01-23T08:08:12.195Z,0.50
2023-01-23T08:10:40.433Z,0.50
2023-01-23T08:13:07.666Z,0.60
2023-01-23T08:15:34.796Z,0.50
2023-01-23T08:18:01.884Z,0.60
2023-01-23T08:20:28.988Z,0.60
2023-01-23T08:22:57.605Z,0.60
2023-01-23T08:25:24.666Z,0.60
2023-01-23T08:27:51.750Z,0.60
2023-01-23T08:30:19.327Z,0.60
2023-01-23T08:32:47.222Z,0.70
2023-01-23T08:35:14.386Z,0.60
2023-01-23T08:37:42.408Z,0.70
2023-01-23T08:40:10.280Z,0.70
2023-01-23T08:42:37.402Z,0.70
2023-01-23T08:45:04.899Z,0.70
2023-01-23T08:47:36.931Z,0.70
2023-01-23T08:50:05.830Z,0.80
2023-01-23T08:52:34.866Z,0.70
2023-01-23T08:55:02.113Z,0.80
2023-01-23T08:57:29.411Z,0.80
2023-01-23T08:59:56.836Z,0.80
2023-01-23T09:02:24.031Z,0.80
2023-01-23T09:04:51.453Z,0.80
2023-01-23T09:07:18.804Z,0.80
2023-01-23T09:09:45.933Z,0.80
2023-01-23T09:12:13.023Z,0.80
2023-01-23T09:14:40.177Z,0.90
2023-01-23T09:17:07.226Z,0.90
2023-01-23T09:19:34.590Z,0.90
2023-01-23T09:22:01.774Z,1.00
2023-01-23T09:24:29.188Z,1.00
2023-01-23T09:26:56.273Z,1.00
2023-01-23T09:29:23.350Z,1.00
2023-01-23T09:31:50.551Z,1.10
2023-01-23T09:34:17.590Z,1.20
2023-01-23T09:36:45.030Z,1.20
2023-01-23T09:39:12.733Z,1.20
2023-01-23T09:41:41.277Z,1.20
2023-01-23T09:44:40.217Z,1.30
2023-01-23T09:47:20.300Z,1.30
2023-01-23T09:49:58.723Z,1.40
2023-01-23T09:52:34.317Z,1.40
2023-01-23T09:55:33.031Z,1.40
2023-01-23T09:58:03.790Z,1.40
2023-01-23T10:00:33.826Z,1.50
2023-01-23T10:03:03.711Z,1.50
2023-01-23T10:05:33.359Z,1.60
2023-01-23T10:08:34.022Z,1.60
2023-01-23T10:11:12.640Z,1.70
2023-01-23T10:14:07.544Z,1.70
2023-01-23T10:16:51.139Z,1.80
2023-01-23T10:19:24.080Z,1.80
2023-01-23T10:22:22.964Z,1.90
2023-01-23T10:24:52.219Z,1.90
2023-01-23T10:27:22.619Z,1.90
2023-01-23T10:30:05.835Z,1.90
2023-01-23T10:32:45.068Z,2.00
2023-01-23T10:35:40.921Z,1.90
2023-01-23T10:38:33.444Z,2.00
2023-01-23T10:41:15.620Z,2.00
2023-01-23T10:43:47.251Z,2.00
2023-01-23T10:46:17.418Z,2.10
2023-01-23T10:48:52.237Z,2.10
2023-01-23T10:51:37.256Z,2.10
2023-01-23T10:54:31.922Z,2.10
2023-01-23T10:57:02.416Z,2.10
2023-01-23T10:59:51.415Z,2.10
2023-01-23T11:02:22.701Z,2.10
2023-01-23T11:04:52.122Z,2.10
2023-01-23T11:07:20.667Z,2.10
2023-01-23T11:09:58.533Z,2.00
2023-01-23T11:12:34.556Z,2.10
2023-01-23T11:15:27.666Z,2.10
2023-01-23T11:17:59.822Z,2.10
2023-01-23T11:20:27.057Z,2.10
2023-01-23T11:23:14.004Z,2.10
2023-01-23T11:25:43.720Z,2.20
2023-01-23T11:28:34.400Z,2.40
2023-01-23T11:31:15.385Z,2.40
2023-01-23T11:34:10.844Z,2.50
2023-01-23T11:36:57.055Z,2.50
2023-01-23T11:39:36.147Z,2.50
2023-01-23T11:42:04.104Z,2.50
2023-01-23T11:44:44.997Z,2.40
2023-01-23T11:47:27.984Z,2.40
2023-01-23T11:50:19.363Z,2.50
2023-01-23T11:53:15.179Z,2.40
2023-01-23T11:56:03.822Z,2.40
2023-01-23T11:58:49.939Z,2.30
2023-01-23T12:02:02.535Z,2.30
2023-01-23T12:05:00.586Z,2.40
2023-01-23T12:07:28.544Z,2.40
2023-01-23T12:10:14.623Z,2.30
2023-01-23T12:13:19.057Z,2.30
2023-01-23T12:16:00.748Z,2.20
2023-01-23T12:18:33.506Z,2.20
2023-01-23T12:21:24.258Z,2.20
2023-01-23T12:24:09.598Z,2.20
2023-01-23T12:26:45.488Z,2.30
2023-01-23T12:29:34.451Z,2.30
2023-01-23T12:32:38.920Z,2.30
2023-01-23T12:35:35.941Z,2.30
2023-01-23T12:38:18.327Z,2.40
2023-01-23T12:40:52.845Z,2.40
2023-01-23T12:43:50.574Z,2.50
2023-01-23T12:46:35.217Z,2.40
2023-01-23T12:49:05.088Z,2.40
2023-01-23T12:51:39.324Z,2.30
2023-01-23T12:54:11.995Z,2.30
2023-01-23T12:56:40.272Z,2.30
2023-01-23T12:59:33.409Z,2.20
2023-01-23T13:02:25.103Z,2.20
2023-01-23T13:05:24.628Z,2.30
2023-01-23T13:08:00.541Z,2.30
2023-01-23T13:11:10.120Z,2.30
2023-01-23T13:13:37.463Z,2.30
2023-01-23T13:16:14.417Z,2.40
2023-01-23T13:19:14.476Z,2.40
2023-01-23T13:22:02.888Z,2.40
2023-01-23T13:24:48.439Z,2.40
2023-01-23T13:27:51.712Z,2.40
2023-01-23T13:30:26.272Z,2.40
2023-01-23T13:33:00.909Z,2.40
2023-01-23T13:35:40.547Z,2.30
2023-01-23T13:38:22.899Z,2.30
2023-01-23T13:41:05.307Z,2.30
2023-01-23T13:43:50.852Z,2.30
2023-01-23T13:46:32.850Z,2.30
2023-01-23T14:24:48.087Z,2.30
2023-01-23T14:27:53.245Z,2.20
2023-01-23T14:30:27.409Z,2.20
2023-01-23T14:32:55.207Z,2.20
2023-01-23T14:35:28.849Z,2.20
2023-01-23T14:38:00.994Z,2.20
2023-01-23T14:40:33.412Z,2.20
2023-01-23T14:43:09.088Z,2.10
2023-01-23T14:45:37.647Z,2.10
2023-01-23T14:48:15.125Z,2.10
2023-01-23T14:50:43.195Z,2.10
2023-01-23T14:53:17.326Z,2.10
2023-01-23T14:55:47.120Z,2.10
2023-01-23T14:58:22.558Z,2.10
2023-01-23T15:00:52.290Z,2.10
2023-01-23T15:03:43.327Z,2.10
2023-01-23T15:06:22.391Z,2.10
2023-01-23T15:08:50.847Z,2.00
2023-01-23T15:11:26.234Z,2.00
2023-01-23T15:14:01.593Z,2.00
2023-01-23T15:16:34.341Z,2.00
2023-01-23T15:19:03.616Z,1.90
2023-01-23T15:21:49.614Z,1.90
2023-01-23T15:24:20.812Z,1.90
2023-01-23T15:27:00.376Z,1.90
2023-01-23T15:29:27.586Z,1.90
2023-01-23T15:31:55.986Z,1.90
2023-01-23T15:34:34.484Z,1.90
2023-01-23T15:37:23.543Z,1.90
2023-01-23T15:40:04.424Z,1.80
2023-01-23T15:42:34.395Z,1.80
2023-01-23T15:45:03.561Z,1.80
2023-01-23T15:47:31.979Z,1.70
2023-01-23T15:50:03.384Z,1.70
2023-01-23T15:52:31.782Z,1.70
2023-01-23T15:55:01.175Z,1.60
2023-01-23T15:57:28.374Z,1.70
2023-01-23T15:59:55.549Z,1.60
2023-01-23T16:02:31.079Z,1.60
2023-01-23T16:05:01.294Z,1.50
2023-01-23T16:07:37.409Z,1.60
2023-01-23T16:10:32.727Z,1.50
2023-01-23T16:13:00.014Z,1.50
2023-01-23T16:15:29.871Z,1.50
2023-01-23T16:17:58.224Z,1.50
2023-01-23T16:20:31.853Z,1.50
2023-01-23T16:23:11.760Z,1.40
2023-01-23T16:25:45.498Z,1.40
2023-01-23T16:28:18.673Z,1.40
2023-01-23T16:30:47.320Z,1.40
2023-01-23T16:33:15.086Z,1.40
2023-01-23T16:35:42.595Z,1.30
2023-01-23T16:38:35.335Z,1.30
2023-01-23T16:41:03.531Z,1.30
2023-01-23T16:43:30.916Z,1.30
2023-01-23T16:45:58.660Z,1.30
2023-01-23T16:48:28.022Z,1.30
2023-01-23T16:51:08.610Z,1.30
2023-01-23T16:53:40.189Z,1.30
2023-01-23T16:56:08.412Z,1.30
2023-01-23T16:58:40.219Z,1.30
2023-01-23T17:01:20.811Z,1.30
2023-01-23T17:04:06.572Z,1.30
2023-01-23T17:06:34.014Z,1.30
2023-01-23T17:11:54.592Z,1.30
2023-01-23T17:14:25.864Z,1.30
2023-01-23T17:16:55.253Z,1.30
2023-01-23T17:19:31.493Z,1.30
2023-01-23T17:22:02.808Z,1.40
2023-01-23T17:24:30.286Z,1.50
2023-01-23T17:26:57.598Z,1.50
2023-01-23T17:29:25.025Z,1.50
2023-01-23T17:31:53.331Z,1.50
2023-01-23T17:34:25.938Z,1.40
2023-01-23T17:36:55.229Z,1.40
2023-01-23T17:39:22.593Z,1.40
2023-01-23T17:41:51.459Z,1.40
2023-01-23T17:44:18.680Z,1.40
2023-01-23T17:46:47.649Z,1.40
2023-01-23T17:49:28.610Z,1.40
2023-01-23T17:51:58.652Z,1.40
2023-01-23T17:54:27.256Z,1.40
2023-01-23T17:57:07.765Z,1.40
2023-01-23T17:59:38.268Z,1.40
2023-01-23T18:02:24.834Z,1.40
2023-01-23T18:04:52.065Z,1.40
2023-01-23T18:07:19.152Z,1.40
2023-01-23T18:09:46.389Z,1.40
2023-01-23T18:12:49.526Z,1.40
2023-01-23T18:15:30.706Z,1.40
2023-01-23T18:18:18.810Z,1.40
2023-01-23T18:20:46.370Z,1.30
2023-01-23T18:23:13.694Z,1.30
2023-01-23T18:25:46.163Z,1.30
2023-01-23T18:28:22.236Z,1.40
2023-01-23T18:31:15.159Z,1.40
2023-01-23T18:33:51.701Z,1.30
2023-01-23T18:36:53.227Z,1.40
2023-01-23T18:39:48.728Z,1.40
2023-01-23T18:42:44.445Z,1.40
2023-01-23T18:45:23.563Z,1.30
2023-01-23T18:47:54.815Z,1.30
2023-01-23T18:50:27.111Z,1.20
2023-01-23T18:53:20.806Z,1.20
2023-01-23T18:55:59.657Z,1.30
2023-01-23T18:59:06.218Z,1.20
2023-01-23T19:01:53.470Z,1.20
2023-01-23T19:04:49.635Z,1.30
2023-01-23T19:07:19.550Z,1.30
2023-01-23T19:09:49.143Z,1.40
2023-01-23T19:12:24.968Z,1.40
2023-01-23T19:15:05.662Z,1.40
2023-01-23T19:17:46.255Z,1.40
2023-01-23T19:20:28.455Z,1.30
2023-01-23T19:23:09.391Z,1.30
2023-01-23T19:25:37.662Z,1.30
2023-01-23T19:28:05.560Z,1.30
2023-01-23T19:30:32.824Z,1.30
2023-01-23T19:32:59.865Z,1.30
2023-01-23T19:35:27.092Z,1.30
2023-01-23T19:37:54.157Z,1.30
2023-01-23T19:40:21.243Z,1.30
2023-01-23T19:42:56.400Z,1.30
2023-01-23T19:45:33.992Z,1.30
2023-01-23T19:48:01.318Z,1.30
2023-01-23T19:50:28.405Z,1.30
2023-01-23T19:52:56.961Z,1.30
2023-01-23T19:55:26.298Z,1.30
2023-01-23T19:57:56.233Z,1.30
2023-01-23T20:00:25.735Z,1.30
2023-01-23T20:02:56.289Z,1.40
2023-01-23T20:05:24.222Z,1.40
2023-01-23T20:07:54.452Z,1.40
2023-01-23T20:10:22.281Z,1.40
2023-01-23T20:12:52.312Z,1.40
2023-01-23T20:15:22.266Z,1.30
2023-01-23T20:17:50.105Z,1.30
2023-01-23T20:20:20.052Z,1.30
2023-01-23T20:22:47.368Z,1.30
2023-01-23T20:25:17.305Z,1.30
2023-01-23T20:27:44.842Z,1.30
2023-01-23T20:30:17.142Z,1.30
2023-01-23T20:32:44.575Z,1.30
2023-01-23T20:35:12.309Z,1.30
2023-01-23T20:37:39.357Z,1.30
2023-01-23T20:40:09.072Z,1.30
2023-01-23T20:42:36.202Z,1.30
2023-01-23T20:45:03.812Z,1.30
2023-01-23T20:47:30.949Z,1.30
2023-01-23T20:49:58.032Z,1.30
2023-01-23T20:52:43.929Z,1.30
2023-01-23T20:55:11.143Z,1.30
2023-01-23T20:57:57.637Z,1.30
2023-01-23T21:00:24.834Z,1.30
2023-01-23T21:02:51.986Z,1.30
2023-01-23T21:05:19.464Z,1.30
2023-01-23T21:07:50.264Z,1.30
2023-01-23T21:10:17.900Z,1.30
2023-01-23T21:12:45.097Z,1.30
2023-01-23T21:15:12.238Z,1.30
2023-01-23T21:17:40.725Z,1.30
2023-01-23T21:20:08.631Z,1.30
2023-01-23T21:22:35.673Z,1.30
2023-01-23T21:25:02.852Z,1.40
2023-01-23T21:27:30.297Z,1.30
2023-01-23T21:29:57.401Z,1.40
2023-01-23T21:32:24.511Z,1.30
2023-01-23T21:34:51.766Z,1.30
2023-01-23T21:37:19.483Z,1.40
2023-01-23T21:39:46.636Z,1.40
2023-01-23T21:42:13.687Z,1.40
2023-01-23T21:44:40.820Z,1.40
2023-01-23T21:47:08.158Z,1.50
2023-01-23T21:49:36.162Z,1.40
2023-01-23T21:52:03.254Z,1.50
2023-01-23T21:54:30.255Z,1.40
2023-01-23T21:56:57.398Z,1.40
2023-01-23T21:59:24.466Z,1.40
2023-01-23T22:01:51.593Z,1.30
2023-01-23T22:04:23.454Z,1.30
2023-01-23T22:06:56.732Z,1.40
2023-01-23T22:09:24.967Z,1.40
2023-01-23T22:11:52.333Z,1.40
2023-01-23T22:14:19.558Z,1.40
2023-01-23T22:16:49.437Z,1.40
2023-01-23T22:19:24.218Z,1.30
2023-01-23T22:21:54.897Z,1.40
2023-01-23T22:24:22.085Z,1.40
2023-01-23T22:26:50.624Z,1.40
2023-01-23T22:29:18.043Z,1.30
2023-01-23T22:31:45.167Z,1.30
2023-01-23T22:34:12.344Z,1.30
2023-01-23T22:36:39.455Z,1.30
2023-01-23T22:39:06.580Z,1.30
2023-01-23T22:41:33.669Z,1.30
2023-01-23T22:44:00.816Z,1.30
2023-01-23T22:46:29.063Z,1.30
2023-01-23T22:48:56.248Z,1.40
2023-01-23T22:51:27.947Z,1.40
2023-01-23T22:53:56.372Z,1.40
2023-01-23T22:56:24.758Z,1.40
2023-01-23T22:58:53.392Z,1.50
2023-01-23T23:01:24.714Z,1.50
2023-01-23T23:03:52.054Z,1.40
2023-01-23T23:06:20.059Z,1.40
2023-01-23T23:08:48.387Z,1.40
2023-01-23T23:11:21.610Z,1.30
2023-01-23T23:13:49.487Z,1.30
2023-01-23T23:16:22.637Z,1.30
2023-01-23T23:18:51.909Z,1.30
2023-01-23T23:21:22.172Z,1.30
2023-01-23T23:23:50.238Z,1.30
2023-01-23T23:26:17.351Z,1.30
2023-01-23T23:28:44.452Z,1.40
2023-01-23T23:31:11.622Z,1.40
2023-01-23T23:33:38.861Z,1.40
2023-01-23T23:36:06.877Z,1.30
2023-01-23T23:38:33.999Z,1.30
2023-01-23T23:41:05.232Z,1.30
2023-01-23T23:43:33.033Z,1.30
2023-01-23T23:46:02.895Z,1.30
2023-01-23T23:48:31.535Z,1.30
2023-01-23T23:51:03.552Z,1.30
2023-01-23T23:53:30.987Z,1.30
2023-01-23T23:55:58.047Z,1.40
2023-01-23T23:58:25.240Z,1.30
